Willsboro, New York
Current Conditions -  °F | °C
As of 7:54 PM on Wednesday 22 Oct 2014 (Local Time) from KBTV Reporting Station
Light Rain Light Rain  
Wind Chill: 52°   Ceiling: 10000
Heat Index: 52°   Visibility: 10mi
Dew Point: 41°   Wind: 10mph
Humidity: 66%   Direction: 360°N
Pressure: 30.12"   Gusts: NA
Location:  44.36°N, 73.39°W
Report Text: KBTV 222354Z 36009KT 10SM -RA FEW050 SCT075 OVC100 11/05 A3012 RMK AO2 RAB42 SLP202 P0000 60000 T01110050 10117 20100 58008
Loading
Personal Weather Stations






























Interactive Weather Map
Tropical Storm Tracking
New forecast layout! Learn more

10-Day Weather Forecast

Advertisements
Track Severe Weather on mobile